Newberry, Pennsylvania
Current Conditions -  °F | °C
As of 12:54 PM on Sunday 25 Jan 2015 (Local Time) from KIPT Reporting Station
Overcast Overcast  
Wind Chill: 29°   Ceiling: 5000
Heat Index: 37°   Visibility: 10mi
Dew Point: 15°   Wind: 12mph
Humidity: 41%   Direction: 20°NNE
Pressure: 29.81"   Gusts: NA
Location:  41.246°N, 77.0167°W
Report Text: KIPT 251754Z 02010KT 10SM BKN050 OVC080 03/M09 A2981 RMK AO2 SLP098 T00281094 10033 20017 51012
Loading
Personal Weather Stations






























Interactive Weather Map New forecast layout! Learn more

10-Day Weather Forecast

Advertisements
Track Severe Weather on mobile